sensor_id;sensor_type;location;lat;lon;timestamp;pressure;altitude;pressure_sealevel;temperature;humidity
56807;BME280;42687;42.524;12.052;2023-05-20T00:01:59;96347.56;;;11.66;100.00
56807;BME280;42687;42.524;12.052;2023-05-20T00:04:25;96361.56;;;11.67;100.00
56807;BME280;42687;42.524;12.052;2023-05-20T00:06:50;96347.69;;;11.65;100.00
56807;BME280;42687;42.524;12.052;2023-05-20T00:09:16;96339.78;;;11.65;100.00
56807;BME280;42687;42.524;12.052;2023-05-20T00:11:41;96338.72;;;11.67;100.00
56807;BME280;42687;42.524;12.052;2023-05-20T00:14:07;96332.81;;;11.64;100.00
56807;BME280;42687;42.524;12.052;2023-05-20T00:16:33;96326.84;;;11.62;100.00
56807;BME280;42687;42.524;12.052;2023-05-20T00:18:59;96336.41;;;11.63;100.00
56807;BME280;42687;42.524;12.052;2023-05-20T00:21:24;96320.59;;;11.63;100.00
56807;BME280;42687;42.524;12.052;2023-05-20T00:23:50;96324.28;;;11.60;100.00
56807;BME280;42687;42.524;12.052;2023-05-20T00:26:16;96312.91;;;11.60;100.00
56807;BME280;42687;42.524;12.052;2023-05-20T00:28:41;96319.13;;;11.59;100.00
56807;BME280;42687;42.524;12.052;2023-05-20T00:31:07;96312.16;;;11.58;100.00
56807;BME280;42687;42.524;12.052;2023-05-20T00:33:33;96310.28;;;11.60;100.00
56807;BME280;42687;42.524;12.052;2023-05-20T00:36:01;96298.28;;;11.56;100.00
56807;BME280;42687;42.524;12.052;2023-05-20T00:38:26;96292.19;;;11.55;100.00
56807;BME280;42687;42.524;12.052;2023-05-20T00:40:52;96286.94;;;11.55;100.00
56807;BME280;42687;42.524;12.052;2023-05-20T00:43:17;96277.09;;;11.57;100.00
56807;BME280;42687;42.524;12.052;2023-05-20T00:45:45;96284.06;;;11.58;100.00
56807;BME280;42687;42.524;12.052;2023-05-20T00:48:12;96284.78;;;11.60;100.00
56807;BME280;42687;42.524;12.052;2023-05-20T00:50:38;96266.06;;;11.52;100.00
56807;BME280;42687;42.524;12.052;2023-05-20T00:53:05;96274.59;;;11.56;100.00
56807;BME280;42687;42.524;12.052;2023-05-20T00:55:31;96274.47;;;11.57;100.00
56807;BME280;42687;42.524;12.052;2023-05-20T00:57:57;96277.22;;;11.56;100.00
56807;BME280;42687;42.524;12.052;2023-05-20T01:00:23;96268.56;;;11.54;100.00
56807;BME280;42687;42.524;12.052;2023-05-20T01:02:48;96259.09;;;11.51;100.00
56807;BME280;42687;42.524;12.052;2023-05-20T01:05:14;96256.38;;;11.52;100.00
56807;BME280;42687;42.524;12.052;2023-05-20T01:07:40;96262.59;;;11.51;100.00
56807;BME280;42687;42.524;12.052;2023-05-20T01:10:07;96251.53;;;11.46;100.00
56807;BME280;42687;42.524;12.052;2023-05-20T01:15:07;96248.06;;;11.46;100.00
56807;BME280;42687;42.524;12.052;2023-05-20T01:17:39;96243.63;;;11.46;100.00
56807;BME280;42687;42.524;12.052;2023-05-20T01:20:08;96242.47;;;11.50;100.00
56807;BME280;42687;42.524;12.052;2023-05-20T01:22:38;96245.22;;;11.49;100.00
56807;BME280;42687;42.524;12.052;2023-05-20T01:25:11;96220.66;;;11.48;100.00
56807;BME280;42687;42.524;12.052;2023-05-20T01:27:36;96212.88;;;11.47;100.00
56807;BME280;42687;42.524;12.052;2023-05-20T01:30:02;96203.91;;;11.49;100.00
56807;BME280;42687;42.524;12.052;2023-05-20T01:32:35;96190.22;;;11.44;100.00
56807;BME280;42687;42.524;12.052;2023-05-20T01:35:03;96197.19;;;11.45;100.00
56807;BME280;42687;42.524;12.052;2023-05-20T01:37:31;96197.06;;;11.47;100.00
56807;BME280;42687;42.524;12.052;2023-05-20T01:39:59;96185.31;;;11.40;100.00
56807;BME280;42687;42.524;12.052;2023-05-20T01:42:26;96198.25;;;11.43;100.00
56807;BME280;42687;42.524;12.052;2023-05-20T01:44:52;96194.66;;;11.44;100.00
56807;BME280;42687;42.524;12.052;2023-05-20T01:47:18;96208.66;;;11.44;100.00
56807;BME280;42687;42.524;12.052;2023-05-20T01:49:44;96198.47;;;11.40;100.00
56807;BME280;42687;42.524;12.052;2023-05-20T01:52:11;96199.63;;;11.35;100.00
56807;BME280;42687;42.524;12.052;2023-05-20T01:54:37;96197.59;;;11.39;100.00
56807;BME280;42687;42.524;12.052;2023-05-20T01:57:02;96138.19;;;10.98;100.00
56807;BME280;42687;42.524;12.052;2023-05-20T01:59:28;96201.22;;;11.38;100.00
56807;BME280;42687;42.524;12.052;2023-05-20T02:01:54;96207.09;;;11.42;100.00
56807;BME280;42687;42.524;12.052;2023-05-20T02:04:19;96189.41;;;11.31;100.00
56807;BME280;42687;42.524;12.052;2023-05-20T02:06:47;96197.00;;;11.35;100.00
56807;BME280;42687;42.524;12.052;2023-05-20T02:09:13;96195.19;;;11.36;100.00
56807;BME280;42687;42.524;12.052;2023-05-20T02:11:39;96197.84;;;11.36;100.00
56807;BME280;42687;42.524;12.052;2023-05-20T02:14:05;96192.69;;;11.34;100.00
56807;BME280;42687;42.524;12.052;2023-05-20T02:16:30;96203.72;;;11.40;100.00
56807;BME280;42687;42.524;12.052;2023-05-20T02:18:56;96189.31;;;11.32;100.00
56807;BME280;42687;42.524;12.052;2023-05-20T02:21:24;96190.16;;;11.33;100.00
56807;BME280;42687;42.524;12.052;2023-05-20T02:23:50;96190.28;;;11.31;100.00
56807;BME280;42687;42.524;12.052;2023-05-20T02:26:16;96151.44;;;11.09;100.00
56807;BME280;42687;42.524;12.052;2023-05-20T02:28:41;96190.28;;;11.31;100.00
56807;BME280;42687;42.524;12.052;2023-05-20T02:31:11;96173.50;;;11.32;100.00
56807;BME280;42687;42.524;12.052;2023-05-20T02:33:37;96174.47;;;11.31;100.00
56807;BME280;42687;42.524;12.052;2023-05-20T02:36:03;96166.66;;;11.30;100.00
56807;BME280;42687;42.524;12.052;2023-05-20T02:38:29;96168.34;;;11.31;100.00
56807;BME280;42687;42.524;12.052;2023-05-20T02:40:56;96177.19;;;11.30;100.00
56807;BME280;42687;42.524;12.052;2023-05-20T02:43:24;96175.19;;;11.33;100.00
56807;BME280;42687;42.524;12.052;2023-05-20T02:45:50;96172.69;;;11.32;100.00
56807;BME280;42687;42.524;12.052;2023-05-20T02:48:16;96172.56;;;11.33;100.00
56807;BME280;42687;42.524;12.052;2023-05-20T02:50:41;96163.19;;;11.29;100.00
56807;BME280;42687;42.524;12.052;2023-05-20T02:53:08;96174.25;;;11.34;100.00
56807;BME280;42687;42.524;12.052;2023-05-20T02:55:35;96165.72;;;11.31;100.00
56807;BME280;42687;42.524;12.052;2023-05-20T02:58:01;96177.00;;;11.33;100.00
56807;BME280;42687;42.524;12.052;2023-05-20T03:00:27;96178.88;;;11.31;100.00
56807;BME280;42687;42.524;12.052;2023-05-20T03:02:55;96184.25;;;11.29;100.00
56807;BME280;42687;42.524;12.052;2023-05-20T03:05:20;96181.75;;;11.28;100.00
56807;BME280;42687;42.524;12.052;2023-05-20T03:07:47;96179.34;;;11.25;100.00
56807;BME280;42687;42.524;12.052;2023-05-20T03:10:13;96187.84;;;11.28;100.00
56807;BME280;42687;42.524;12.052;2023-05-20T03:12:39;96178.59;;;11.23;100.00
56807;BME280;42687;42.524;12.052;2023-05-20T03:15:06;96177.00;;;11.20;100.00
56807;BME280;42687;42.524;12.052;2023-05-20T03:17:32;96167.31;;;11.21;100.00
56807;BME280;42687;42.524;12.052;2023-05-20T03:19:58;96168.47;;;11.16;100.00
56807;BME280;42687;42.524;12.052;2023-05-20T03:22:23;96173.66;;;11.18;100.00
56807;BME280;42687;42.524;12.052;2023-05-20T03:24:49;96180.91;;;11.14;100.00
56807;BME280;42687;42.524;12.052;2023-05-20T03:27:17;96175.03;;;11.11;100.00
56807;BME280;42687;42.524;12.052;2023-05-20T03:29:43;96174.09;;;11.12;100.00
56807;BME280;42687;42.524;12.052;2023-05-20T03:32:08;96184.91;;;11.07;100.00
56807;BME280;42687;42.524;12.052;2023-05-20T03:34:34;96169.03;;;11.09;100.00
56807;BME280;42687;42.524;12.052;2023-05-20T03:37:00;96108.66;;;10.68;100.00
56807;BME280;42687;42.524;12.052;2023-05-20T03:39:26;96155.38;;;11.04;100.00
56807;BME280;42687;42.524;12.052;2023-05-20T03:41:51;96167.47;;;11.06;100.00
56807;BME280;42687;42.524;12.052;2023-05-20T03:44:17;96170.28;;;11.03;100.00
56807;BME280;42687;42.524;12.052;2023-05-20T03:46:44;96169.34;;;11.04;100.00
56807;BME280;42687;42.524;12.052;2023-05-20T03:49:09;96162.19;;;11.06;100.00
56807;BME280;42687;42.524;12.052;2023-05-20T03:51:35;96163.16;;;11.05;100.00
56807;BME280;42687;42.524;12.052;2023-05-20T03:54:01;96169.75;;;11.11;100.00
56807;BME280;42687;42.524;12.052;2023-05-20T03:56:26;96179.34;;;11.12;100.00
56807;BME280;42687;42.524;12.052;2023-05-20T03:58:52;96093.22;;;10.64;100.00
56807;BME280;42687;42.524;12.052;2023-05-20T04:01:18;96157.03;;;11.05;100.00
56807;BME280;42687;42.524;12.052;2023-05-20T04:03:44;96160.19;;;11.10;100.00
56807;BME280;42687;42.524;12.052;2023-05-20T04:06:09;96155.03;;;11.08;100.00
56807;BME280;42687;42.524;12.052;2023-05-20T04:08:35;96152.16;;;11.11;100.00
56807;BME280;42687;42.524;12.052;2023-05-20T04:11:01;96161.97;;;11.09;100.00
56807;BME280;42687;42.524;12.052;2023-05-20T04:13:27;96162.69;;;11.11;100.00
56807;BME280;42687;42.524;12.052;2023-05-20T04:15:53;96162.50;;;11.14;100.00
56807;BME280;42687;42.524;12.052;2023-05-20T04:18:19;96164.28;;;11.14;100.00
56807;BME280;42687;42.524;12.052;2023-05-20T04:20:45;96166.81;;;11.15;100.00
56807;BME280;42687;42.524;12.052;2023-05-20T04:23:12;96161.75;;;11.12;100.00
56807;BME280;42687;42.524;12.052;2023-05-20T04:25:37;96170.16;;;11.17;100.00
56807;BME280;42687;42.524;12.052;2023-05-20T04:28:05;96176.06;;;11.21;100.00
56807;BME280;42687;42.524;12.052;2023-05-20T04:30:31;96177.13;;;11.18;100.00
56807;BME280;42687;42.524;12.052;2023-05-20T04:32:58;96172.56;;;11.21;100.00
56807;BME280;42687;42.524;12.052;2023-05-20T04:35:27;96107.59;;;10.84;100.00
56807;BME280;42687;42.524;12.052;2023-05-20T04:37:54;96172.38;;;11.24;100.00
56807;BME280;42687;42.524;12.052;2023-05-20T04:40:20;96168.81;;;11.25;100.00
56807;BME280;42687;42.524;12.052;2023-05-20T04:42:47;96170.28;;;11.29;100.00
56807;BME280;42687;42.524;12.052;2023-05-20T04:45:12;96112.84;;;10.97;100.00
56807;BME280;42687;42.524;12.052;2023-05-20T04:47:38;96160.69;;;11.28;100.00
56807;BME280;42687;42.524;12.052;2023-05-20T04:50:09;96169.28;;;11.30;100.00
56807;BME280;42687;42.524;12.052;2023-05-20T04:52:41;96169.94;;;11.33;100.00
56807;BME280;42687;42.524;12.052;2023-05-20T04:55:11;96172.38;;;11.37;100.00
56807;BME280;42687;42.524;12.052;2023-05-20T04:57:38;96168.16;;;11.34;100.00
56807;BME280;42687;42.524;12.052;2023-05-20T05:00:09;96173.44;;;11.34;100.00
56807;BME280;42687;42.524;12.052;2023-05-20T05:02:36;96171.50;;;11.36;100.00
56807;BME280;42687;42.524;12.052;2023-05-20T05:05:02;96156.78;;;11.33;100.00
56807;BME280;42687;42.524;12.052;2023-05-20T05:07:28;96168.75;;;11.38;100.00
56807;BME280;42687;42.524;12.052;2023-05-20T05:09:54;96162.66;;;11.37;100.00
56807;BME280;42687;42.524;12.052;2023-05-20T05:12:20;96163.50;;;11.38;100.00
56807;BME280;42687;42.524;12.052;2023-05-20T05:14:45;96175.00;;;11.37;100.00
56807;BME280;42687;42.524;12.052;2023-05-20T05:17:11;96159.84;;;11.27;100.00
56807;BME280;42687;42.524;12.052;2023-05-20T05:19:37;96159.50;;;11.32;100.00
56807;BME280;42687;42.524;12.052;2023-05-20T05:22:02;96158.56;;;11.33;100.00
56807;BME280;42687;42.524;12.052;2023-05-20T05:24:28;96162.91;;;11.34;100.00
56807;BME280;42687;42.524;12.052;2023-05-20T05:26:54;96154.03;;;11.35;100.00
56807;BME280;42687;42.524;12.052;2023-05-20T05:29:20;96156.56;;;11.37;100.00
56807;BME280;42687;42.524;12.052;2023-05-20T05:31:46;96144.47;;;11.34;100.00
56807;BME280;42687;42.524;12.052;2023-05-20T05:34:11;96139.91;;;11.36;100.00
56807;BME280;42687;42.524;12.052;2023-05-20T05:36:38;96141.59;;;11.37;100.00
56807;BME280;42687;42.524;12.052;2023-05-20T05:39:04;96145.81;;;11.40;100.00
56807;BME280;42687;42.524;12.052;2023-05-20T05:41:30;96143.81;;;11.43;100.00
56807;BME280;42687;42.524;12.052;2023-05-20T05:43:57;96130.03;;;11.40;100.00
56807;BME280;42687;42.524;12.052;2023-05-20T05:46:23;96145.59;;;11.43;100.00
56807;BME280;42687;42.524;12.052;2023-05-20T05:48:49;96138.63;;;11.42;100.00
56807;BME280;42687;42.524;12.052;2023-05-20T05:51:15;96133.47;;;11.40;100.00
56807;BME280;42687;42.524;12.052;2023-05-20T05:53:41;96141.91;;;11.45;100.00
56807;BME280;42687;42.524;12.052;2023-05-20T05:56:07;96130.66;;;11.43;100.00
56807;BME280;42687;42.524;12.052;2023-05-20T05:58:33;96140.72;;;11.49;100.00
56807;BME280;42687;42.524;12.052;2023-05-20T06:00:59;96139.03;;;11.48;100.00
56807;BME280;42687;42.524;12.052;2023-05-20T06:03:24;96128.41;;;11.50;100.00
56807;BME280;42687;42.524;12.052;2023-05-20T06:05:51;96132.63;;;11.52;100.00
56807;BME280;42687;42.524;12.052;2023-05-20T06:08:17;96134.78;;;11.59;100.00
56807;BME280;42687;42.524;12.052;2023-05-20T06:10:49;96132.66;;;11.64;100.00
56807;BME280;42687;42.524;12.052;2023-05-20T06:13:15;96127.50;;;11.62;100.00
56807;BME280;42687;42.524;12.052;2023-05-20T06:15:41;96138.44;;;11.69;100.00
56807;BME280;42687;42.524;12.052;2023-05-20T06:18:07;96124.88;;;11.62;100.00
56807;BME280;42687;42.524;12.052;2023-05-20T06:20:33;96135.06;;;11.67;100.00
56807;BME280;42687;42.524;12.052;2023-05-20T06:22:58;96136.47;;;11.60;100.00
56807;BME280;42687;42.524;12.052;2023-05-20T06:25:24;96145.53;;;11.68;100.00
56807;BME280;42687;42.524;12.052;2023-05-20T06:27:50;96149.22;;;11.66;100.00
56807;BME280;42687;42.524;12.052;2023-05-20T06:30:16;96149.81;;;11.69;100.00
56807;BME280;42687;42.524;12.052;2023-05-20T06:32:42;96161.91;;;11.72;100.00
56807;BME280;42687;42.524;12.052;2023-05-20T06:35:08;96150.66;;;11.70;100.00
56807;BME280;42687;42.524;12.052;2023-05-20T06:37:34;96142.66;;;11.72;100.00
56807;BME280;42687;42.524;12.052;2023-05-20T06:39:59;96141.81;;;11.71;100.00
56807;BME280;42687;42.524;12.052;2023-05-20T06:42:25;96134.88;;;11.70;100.00
56807;BME280;42687;42.524;12.052;2023-05-20T06:44:51;96129.72;;;11.68;100.00
56807;BME280;42687;42.524;12.052;2023-05-20T06:47:17;96137.38;;;11.72;100.00
56807;BME280;42687;42.524;12.052;2023-05-20T06:49:43;96150.19;;;11.76;100.00
56807;BME280;42687;42.524;12.052;2023-05-20T06:52:09;96159.19;;;11.74;100.00
56807;BME280;42687;42.524;12.052;2023-05-20T06:54:37;96144.09;;;11.76;100.00
56807;BME280;42687;42.524;12.052;2023-05-20T06:57:06;96146.50;;;11.79;100.00
56807;BME280;42687;42.524;12.052;2023-05-20T06:59:34;96149.53;;;11.85;100.00
56807;BME280;42687;42.524;12.052;2023-05-20T07:02:00;96156.28;;;11.90;100.00
56807;BME280;42687;42.524;12.052;2023-05-20T07:04:26;96149.22;;;11.90;100.00
56807;BME280;42687;42.524;12.052;2023-05-20T07:06:52;96141.84;;;11.95;100.00
56807;BME280;42687;42.524;12.052;2023-05-20T07:09:18;96138.16;;;11.98;100.00
56807;BME280;42687;42.524;12.052;2023-05-20T07:11:44;96131.69;;;12.02;100.00
56807;BME280;42687;42.524;12.052;2023-05-20T07:14:10;96139.53;;;12.15;100.00
56807;BME280;42687;42.524;12.052;2023-05-20T07:16:36;96138.22;;;12.21;100.00
56807;BME280;42687;42.524;12.052;2023-05-20T07:19:02;96113.31;;;12.25;100.00
56807;BME280;42687;42.524;12.052;2023-05-20T07:21:28;96116.69;;;12.38;100.00
56807;BME280;42687;42.524;12.052;2023-05-20T07:23:54;96104.13;;;12.42;100.00
56807;BME280;42687;42.524;12.052;2023-05-20T07:26:20;96101.88;;;12.48;100.00
56807;BME280;42687;42.524;12.052;2023-05-20T07:28:46;96091.81;;;12.54;100.00
56807;BME280;42687;42.524;12.052;2023-05-20T07:31:12;96092.31;;;12.59;100.00
56807;BME280;42687;42.524;12.052;2023-05-20T07:33:38;96077.19;;;12.61;100.00
56807;BME280;42687;42.524;12.052;2023-05-20T07:36:04;96070.72;;;12.65;100.00
56807;BME280;42687;42.524;12.052;2023-05-20T07:38:30;96056.31;;;12.69;100.00
56807;BME280;42687;42.524;12.052;2023-05-20T07:40:57;96063.41;;;12.80;100.00
56807;BME280;42687;42.524;12.052;2023-05-20T07:43:23;96045.28;;;12.75;100.00
56807;BME280;42687;42.524;12.052;2023-05-20T07:45:48;96025.00;;;12.76;100.00
56807;BME280;42687;42.524;12.052;2023-05-20T07:48:14;96029.22;;;12.78;100.00
56807;BME280;42687;42.524;12.052;2023-05-20T07:50:40;96026.81;;;12.75;100.00
56807;BME280;42687;42.524;12.052;2023-05-20T07:53:06;96024.06;;;12.77;100.00
56807;BME280;42687;42.524;12.052;2023-05-20T07:55:34;96011.81;;;12.76;100.00
56807;BME280;42687;42.524;12.052;2023-05-20T07:58:01;96028.38;;;12.89;100.00
56807;BME280;42687;42.524;12.052;2023-05-20T08:00:27;96025.38;;;12.94;100.00
56807;BME280;42687;42.524;12.052;2023-05-20T08:02:53;96016.72;;;13.03;100.00
56807;BME280;42687;42.524;12.052;2023-05-20T08:05:19;96010.56;;;13.14;100.00
56807;BME280;42687;42.524;12.052;2023-05-20T08:07:44;96009.34;;;13.29;100.00
56807;BME280;42687;42.524;12.052;2023-05-20T08:10:10;95990.25;;;13.26;100.00
56807;BME280;42687;42.524;12.052;2023-05-20T08:12:36;95988.34;;;13.28;100.00
56807;BME280;42687;42.524;12.052;2023-05-20T08:15:02;95985.44;;;13.31;100.00
56807;BME280;42687;42.524;12.052;2023-05-20T08:17:28;95985.38;;;13.21;100.00
56807;BME280;42687;42.524;12.052;2023-05-20T08:19:54;96004.41;;;13.25;100.00
56807;BME280;42687;42.524;12.052;2023-05-20T08:22:20;95993.16;;;13.23;100.00
56807;BME280;42687;42.524;12.052;2023-05-20T08:24:45;95989.44;;;13.25;100.00
56807;BME280;42687;42.524;12.052;2023-05-20T08:27:11;95989.31;;;13.27;100.00
56807;BME280;42687;42.524;12.052;2023-05-20T08:29:37;95983.63;;;13.31;100.00
56807;BME280;42687;42.524;12.052;2023-05-20T08:32:02;95972.25;;;13.31;100.00
56807;BME280;42687;42.524;12.052;2023-05-20T08:34:28;95957.03;;;13.23;100.00
56807;BME280;42687;42.524;12.052;2023-05-20T08:36:54;95963.16;;;13.24;100.00
56807;BME280;42687;42.524;12.052;2023-05-20T08:39:21;95953.72;;;13.10;100.00
56807;BME280;42687;42.524;12.052;2023-05-20T08:41:47;95952.69;;;12.90;100.00
56807;BME280;42687;42.524;12.052;2023-05-20T08:44:13;95978.81;;;13.04;100.00
56807;BME280;42687;42.524;12.052;2023-05-20T08:46:39;95984.44;;;12.99;100.00
56807;BME280;42687;42.524;12.052;2023-05-20T08:49:06;95981.34;;;12.94;100.00
56807;BME280;42687;42.524;12.052;2023-05-20T08:51:32;95968.53;;;12.90;100.00
56807;BME280;42687;42.524;12.052;2023-05-20T08:54:01;95975.84;;;12.86;100.00
56807;BME280;42687;42.524;12.052;2023-05-20T08:56:28;95980.41;;;12.84;100.00
56807;BME280;42687;42.524;12.052;2023-05-20T08:58:54;95988.69;;;12.91;100.00
56807;BME280;42687;42.524;12.052;2023-05-20T09:01:23;95977.66;;;12.85;100.00
56807;BME280;42687;42.524;12.052;2023-05-20T09:03:52;95988.22;;;12.85;100.00
56807;BME280;42687;42.524;12.052;2023-05-20T09:06:18;95979.09;;;12.90;100.00
56807;BME280;42687;42.524;12.052;2023-05-20T09:08:45;95991.78;;;12.96;100.00
56807;BME280;42687;42.524;12.052;2023-05-20T09:11:12;95993.09;;;13.01;100.00
56807;BME280;42687;42.524;12.052;2023-05-20T09:13:37;95991.63;;;13.09;100.00
56807;BME280;42687;42.524;12.052;2023-05-20T09:16:03;95997.16;;;13.17;100.00
56807;BME280;42687;42.524;12.052;2023-05-20T09:18:29;95994.72;;;13.25;100.00
56807;BME280;42687;42.524;12.052;2023-05-20T09:20:56;95996.50;;;13.36;100.00
56807;BME280;42687;42.524;12.052;2023-05-20T09:23:22;96010.38;;;13.49;100.00
56807;BME280;42687;42.524;12.052;2023-05-20T09:25:50;96014.44;;;13.54;100.00
56807;BME280;42687;42.524;12.052;2023-05-20T09:28:21;96006.31;;;13.45;100.00
56807;BME280;42687;42.524;12.052;2023-05-20T09:30:49;96015.22;;;13.44;100.00
56807;BME280;42687;42.524;12.052;2023-05-20T09:33:16;96027.00;;;13.40;100.00
56807;BME280;42687;42.524;12.052;2023-05-20T09:35:42;96039.22;;;13.41;100.00
56807;BME280;42687;42.524;12.052;2023-05-20T09:38:08;96036.00;;;13.38;100.00
56807;BME280;42687;42.524;12.052;2023-05-20T09:40:34;96061.91;;;13.44;100.00
56807;BME280;42687;42.524;12.052;2023-05-20T09:43:05;96049.94;;;13.40;100.00
56807;BME280;42687;42.524;12.052;2023-05-20T09:45:32;96056.38;;;13.47;100.00
56807;BME280;42687;42.524;12.052;2023-05-20T09:48:00;96062.47;;;13.47;100.00
56807;BME280;42687;42.524;12.052;2023-05-20T09:50:26;96063.41;;;13.58;100.00
56807;BME280;42687;42.524;12.052;2023-05-20T09:52:54;96065.72;;;13.62;100.00
56807;BME280;42687;42.524;12.052;2023-05-20T09:55:22;96063.53;;;13.67;100.00
56807;BME280;42687;42.524;12.052;2023-05-20T09:57:48;96066.88;;;13.70;100.00
56807;BME280;42687;42.524;12.052;2023-05-20T10:00:15;96050.78;;;13.73;100.00
56807;BME280;42687;42.524;12.052;2023-05-20T10:02:46;96041.63;;;13.77;100.00
56807;BME280;42687;42.524;12.052;2023-05-20T10:10:40;96036.47;;;13.96;100.00
56807;BME280;42687;42.524;12.052;2023-05-20T10:13:29;96042.81;;;14.05;100.00
56807;BME280;42687;42.524;12.052;2023-05-20T10:16:12;96038.81;;;14.11;100.00
56807;BME280;42687;42.524;12.052;2023-05-20T10:19:02;96034.84;;;14.16;100.00
56807;BME280;42687;42.524;12.052;2023-05-20T10:21:31;96035.06;;;14.13;100.00
56807;BME280;42687;42.524;12.052;2023-05-20T10:24:09;96029.59;;;14.05;100.00
56807;BME280;42687;42.524;12.052;2023-05-20T10:26:40;96024.72;;;14.00;100.00
56807;BME280;42687;42.524;12.052;2023-05-20T10:29:16;96023.66;;;13.92;100.00
56807;BME280;42687;42.524;12.052;2023-05-20T10:31:50;96022.94;;;13.90;100.00
56807;BME280;42687;42.524;12.052;2023-05-20T10:34:20;96014.31;;;13.88;100.00
56807;BME280;42687;42.524;12.052;2023-05-20T10:36:57;96006.72;;;13.94;100.00
56807;BME280;42687;42.524;12.052;2023-05-20T10:39:30;96021.00;;;13.92;100.00
56807;BME280;42687;42.524;12.052;2023-05-20T10:42:07;96022.31;;;13.97;100.00
56807;BME280;42687;42.524;12.052;2023-05-20T10:44:46;96020.19;;;13.91;100.00
56807;BME280;42687;42.524;12.052;2023-05-20T10:47:12;96024.25;;;13.95;100.00
56807;BME280;42687;42.524;12.052;2023-05-20T10:49:43;96013.78;;;13.94;100.00
56807;BME280;42687;42.524;12.052;2023-05-20T10:52:10;96023.03;;;13.99;100.00
56807;BME280;42687;42.524;12.052;2023-05-20T10:54:46;96004.13;;;14.04;100.00
56807;BME280;42687;42.524;12.052;2023-05-20T10:57:12;96012.22;;;14.12;100.00
56807;BME280;42687;42.524;12.052;2023-05-20T10:59:38;96023.47;;;14.26;100.00
56807;BME280;42687;42.524;12.052;2023-05-20T11:02:05;96021.97;;;14.33;100.00
56807;BME280;42687;42.524;12.052;2023-05-20T11:04:32;96026.03;;;14.37;100.00
56807;BME280;42687;42.524;12.052;2023-05-20T11:06:58;96029.13;;;14.42;100.00
56807;BME280;42687;42.524;12.052;2023-05-20T11:09:23;96013.84;;;14.46;100.00
56807;BME280;42687;42.524;12.052;2023-05-20T11:11:53;96008.38;;;14.38;100.00
56807;BME280;42687;42.524;12.052;2023-05-20T11:14:20;96008.59;;;14.34;100.00
56807;BME280;42687;42.524;12.052;2023-05-20T11:16:50;96010.88;;;14.39;100.00
56807;BME280;42687;42.524;12.052;2023-05-20T11:19:17;96025.06;;;14.38;100.00
56807;BME280;42687;42.524;12.052;2023-05-20T11:21:44;96014.63;;;14.37;100.00
56807;BME280;42687;42.524;12.052;2023-05-20T11:24:11;96003.63;;;14.41;100.00
56807;BME280;42687;42.524;12.052;2023-05-20T11:26:38;95997.09;;;14.45;100.00
56807;BME280;42687;42.524;12.052;2023-05-20T11:29:04;95996.88;;;14.48;100.00
56807;BME280;42687;42.524;12.052;2023-05-20T11:31:32;96012.59;;;14.50;100.00
56807;BME280;42687;42.524;12.052;2023-05-20T11:33:59;96012.19;;;14.55;100.00
56807;BME280;42687;42.524;12.052;2023-05-20T11:36:26;96010.63;;;14.52;100.00
56807;BME280;42687;42.524;12.052;2023-05-20T11:38:53;96012.00;;;14.46;100.00
56807;BME280;42687;42.524;12.052;2023-05-20T11:41:25;96017.13;;;14.38;100.00
56807;BME280;42687;42.524;12.052;2023-05-20T11:43:58;96010.56;;;14.32;100.00
56807;BME280;42687;42.524;12.052;2023-05-20T11:46:25;96000.22;;;14.29;100.00
56807;BME280;42687;42.524;12.052;2023-05-20T11:48:52;96007.47;;;14.27;100.00
56807;BME280;42687;42.524;12.052;2023-05-20T11:51:28;96009.41;;;14.25;100.00
56807;BME280;42687;42.524;12.052;2023-05-20T11:54:01;96011.72;;;14.18;100.00
56807;BME280;42687;42.524;12.052;2023-05-20T11:56:31;96026.91;;;14.16;100.00
56807;BME280;42687;42.524;12.052;2023-05-20T11:59:00;96025.59;;;14.11;100.00
56807;BME280;42687;42.524;12.052;2023-05-20T12:01:29;96035.34;;;14.10;100.00
56807;BME280;42687;42.524;12.052;2023-05-20T12:03:55;96039.66;;;14.11;100.00
56807;BME280;42687;42.524;12.052;2023-05-20T12:06:21;96026.13;;;14.05;100.00
56807;BME280;42687;42.524;12.052;2023-05-20T12:08:47;96041.84;;;14.06;100.00
56807;BME280;42687;42.524;12.052;2023-05-20T12:11:12;96035.97;;;14.02;100.00
56807;BME280;42687;42.524;12.052;2023-05-20T12:13:39;96053.66;;;14.02;100.00
56807;BME280;42687;42.524;12.052;2023-05-20T12:16:05;96048.59;;;13.99;100.00
56807;BME280;42687;42.524;12.052;2023-05-20T12:18:31;96061.25;;;13.95;100.00
56807;BME280;42687;42.524;12.052;2023-05-20T12:20:58;96049.50;;;13.88;100.00
56807;BME280;42687;42.524;12.052;2023-05-20T12:23:24;96055.03;;;13.85;100.00
56807;BME280;42687;42.524;12.052;2023-05-20T12:25:49;96071.88;;;13.84;100.00
56807;BME280;42687;42.524;12.052;2023-05-20T12:28:16;96076.31;;;13.83;100.00
56807;BME280;42687;42.524;12.052;2023-05-20T12:30:42;96065.47;;;13.87;100.00
56807;BME280;42687;42.524;12.052;2023-05-20T12:33:08;96064.53;;;13.88;100.00
56807;BME280;42687;42.524;12.052;2023-05-20T12:35:41;96082.72;;;14.02;100.00
56807;BME280;42687;42.524;12.052;2023-05-20T12:38:08;96076.34;;;14.05;100.00
56807;BME280;42687;42.524;12.052;2023-05-20T12:40:35;96072.78;;;13.94;100.00
56807;BME280;42687;42.524;12.052;2023-05-20T12:43:02;96078.34;;;13.91;100.00
56807;BME280;42687;42.524;12.052;2023-05-20T12:45:28;96077.16;;;13.84;100.00
56807;BME280;42687;42.524;12.052;2023-05-20T12:47:55;96073.56;;;13.74;100.00